Time;durP1;ratioP1;P1;durP2;ratioP2;P2;SDS_P1;SDS_P2;PMS_P1;PMS_P2;Temp;Humidity;BMP_temperature;BMP_pressure;BME280_temperature;BME280_humidity;BME280_pressure;Samples;Min_cycle;Max_cycle;Signal;HPM_P1;HPM_P2
2021/11/27 00:02:18;;;;;;;0.23;0.23;;;4.50;99.90;;;;;;5035357;28;20196;-85
2021/11/27 00:04:44;;;;;;;0.77;0.53;;;4.60;99.90;;;;;;5030706;28;20180;-84
2021/11/27 00:07:09;;;;;;;0.53;0.27;;;4.70;99.90;;;;;;5036683;28;20198;-84
2021/11/27 00:09:35;;;;;;;0.30;0.30;;;4.70;99.90;;;;;;5049463;28;20191;-84
2021/11/27 00:12:01;;;;;;;0.20;0.20;;;4.70;99.90;;;;;;5041829;28;20254;-85
2021/11/27 00:14:26;;;;;;;0.30;0.30;;;4.70;99.90;;;;;;5025668;28;20231;-84
2021/11/27 00:16:52;;;;;;;0.37;0.37;;;4.70;99.90;;;;;;5035828;28;20176;-85
2021/11/27 00:19:18;;;;;;;0.30;0.30;;;4.70;99.90;;;;;;5033544;28;20583;-84
2021/11/27 00:21:44;;;;;;;1.73;0.73;;;4.80;99.90;;;;;;5048336;28;20203;-84
2021/11/27 00:24:11;;;;;;;0.10;0.10;;;4.70;99.90;;;;;;5030317;28;20261;-84
2021/11/27 00:26:37;;;;;;;1.03;0.80;;;4.60;99.90;;;;;;5045360;28;20184;-84
2021/11/27 00:29:03;;;;;;;0.70;0.70;;;4.60;99.90;;;;;;5029520;28;20679;-85
2021/11/27 00:31:29;;;;;;;0.20;0.20;;;4.60;99.90;;;;;;5039845;28;20190;-85
2021/11/27 00:33:57;;;;;;;0.30;0.30;;;4.60;99.90;;;;;;5033261;28;20190;-84
2021/11/27 00:36:23;;;;;;;0.80;0.80;;;4.60;99.90;;;;;;5036358;28;20621;-85
2021/11/27 00:38:49;;;;;;;0.50;0.50;;;4.60;99.90;;;;;;5038238;28;20668;-85
2021/11/27 00:41:15;;;;;;;0.40;0.40;;;4.60;99.90;;;;;;5053396;28;20259;-84
2021/11/27 00:43:41;;;;;;;0.47;0.37;;;4.70;99.90;;;;;;5035514;28;20181;-84
2021/11/27 00:46:07;;;;;;;0.37;0.33;;;4.80;99.90;;;;;;5035269;28;20208;-84
2021/11/27 00:48:33;;;;;;;0.60;0.60;;;4.80;99.90;;;;;;5030543;28;20205;-84
2021/11/27 00:51:18;;;;;;;0.23;0.23;;;4.80;99.90;;;;;;5025522;28;20684;-85
2021/11/27 00:53:44;;;;;;;0.77;0.47;;;4.80;99.90;;;;;;5053884;28;20260;-84
2021/11/27 00:56:10;;;;;;;0.70;0.70;;;4.80;99.90;;;;;;5027705;28;20554;-85
2021/11/27 00:58:36;;;;;;;0.67;0.63;;;4.80;99.90;;;;;;5030869;28;20206;-84
2021/11/27 01:01:10;;;;;;;0.30;0.30;;;4.80;99.90;;;;;;5032982;28;20263;-85
2021/11/27 01:03:39;;;;;;;0.37;0.37;;;4.90;99.90;;;;;;5035509;28;20707;-84
2021/11/27 01:06:08;;;;;;;0.67;0.67;;;4.90;99.90;;;;;;5033265;28;20265;-85
2021/11/27 01:08:34;;;;;;;0.20;0.20;;;4.90;99.90;;;;;;5034441;28;20221;-85
2021/11/27 01:11:09;;;;;;;0.23;0.23;;;4.90;99.90;;;;;;5033607;28;20189;-84
2021/11/27 01:13:37;;;;;;;0.50;0.50;;;4.90;99.90;;;;;;5021518;28;20186;-84
2021/11/27 01:16:04;;;;;;;1.70;1.60;;;4.90;99.90;;;;;;5026719;28;20652;-84
2021/11/27 01:18:29;;;;;;;0.13;0.13;;;4.90;99.90;;;;;;5026775;28;20202;-84
2021/11/27 01:21:01;;;;;;;0.17;0.17;;;4.90;99.90;;;;;;5032739;28;20212;-85
2021/11/27 01:23:27;;;;;;;0.40;0.40;;;4.90;99.90;;;;;;5047137;28;20184;-85
2021/11/27 01:25:53;;;;;;;0.50;0.50;;;4.90;99.90;;;;;;5030497;28;20220;-84
2021/11/27 01:28:22;;;;;;;2.47;0.30;;;5.00;99.90;;;;;;5030006;28;20264;-85
2021/11/27 01:30:51;;;;;;;2.37;0.40;;;5.00;99.90;;;;;;5029737;28;20668;-84
2021/11/27 01:33:18;;;;;;;0.10;0.10;;;4.90;99.90;;;;;;5025829;28;20200;-84
2021/11/27 01:35:44;;;;;;;0.20;0.20;;;4.90;99.90;;;;;;5033327;28;20319;-84
2021/11/27 01:38:09;;;;;;;0.47;0.47;;;4.90;99.90;;;;;;5033596;28;20296;-85
2021/11/27 01:40:36;;;;;;;1.00;0.30;;;5.00;99.90;;;;;;5028079;28;20206;-84
2021/11/27 01:43:03;;;;;;;0.30;0.30;;;5.00;99.90;;;;;;5034127;28;20214;-85
2021/11/27 01:45:30;;;;;;;0.73;0.30;;;5.10;99.90;;;;;;5033192;28;20269;-85
2021/11/27 01:48:03;;;;;;;1.50;0.60;;;5.10;99.90;;;;;;5034071;28;20745;-84
2021/11/27 01:50:34;;;;;;;1.20;0.43;;;5.00;99.90;;;;;;5026689;28;20247;-84
2021/11/27 01:53:00;;;;;;;0.10;0.10;;;5.10;99.90;;;;;;5034612;28;20185;-84
2021/11/27 01:55:29;;;;;;;1.57;0.73;;;5.10;99.90;;;;;;5028670;28;20178;-85
2021/11/27 01:57:55;;;;;;;0.10;0.10;;;5.20;99.90;;;;;;5024332;28;20299;-84
2021/11/27 02:00:24;;;;;;;0.10;0.10;;;5.20;99.90;;;;;;5031266;28;20961;-84
2021/11/27 02:02:51;;;;;;;1.67;0.50;;;5.20;99.90;;;;;;5052220;28;20227;-85
2021/11/27 02:05:17;;;;;;;0.57;0.57;;;5.30;99.90;;;;;;5032835;28;20580;-85
2021/11/27 02:07:43;;;;;;;0.47;0.47;;;5.30;99.90;;;;;;5017011;28;20248;-84
2021/11/27 02:10:12;;;;;;;0.40;0.40;;;5.30;99.90;;;;;;5030842;28;20185;-85
2021/11/27 02:12:39;;;;;;;0.30;0.30;;;5.30;99.90;;;;;;5025523;28;20194;-84
2021/11/27 02:15:05;;;;;;;0.30;0.30;;;5.30;99.90;;;;;;5039735;28;20184;-84
2021/11/27 02:17:31;;;;;;;0.40;0.40;;;5.20;99.90;;;;;;5026667;28;20201;-85
2021/11/27 02:19:56;;;;;;;0.10;0.10;;;4.90;99.90;;;;;;5040500;28;20193;-84
2021/11/27 02:22:22;;;;;;;0.10;0.10;;;4.90;99.90;;;;;;5051666;28;20188;-85
2021/11/27 02:24:49;;;;;;;0.67;0.50;;;4.90;99.90;;;;;;5027587;28;20686;-85
2021/11/27 02:27:15;;;;;;;0.10;0.10;;;5.00;99.90;;;;;;5029698;28;20335;-85
2021/11/27 02:29:41;;;;;;;0.47;0.47;;;5.20;99.90;;;;;;5030566;28;20529;-84
2021/11/27 02:32:07;;;;;;;0.20;0.20;;;5.00;99.90;;;;;;5033052;28;20184;-85
2021/11/27 02:34:33;;;;;;;0.10;0.10;;;4.70;99.90;;;;;;5027678;28;20265;-84
2021/11/27 02:37:02;;;;;;;0.50;0.50;;;4.50;99.90;;;;;;5046293;28;20260;-85
2021/11/27 02:39:30;;;;;;;0.40;0.40;;;4.50;99.90;;;;;;5023276;28;20193;-84
2021/11/27 02:41:56;;;;;;;0.20;0.20;;;4.50;99.90;;;;;;5047719;28;20198;-84
2021/11/27 02:44:29;;;;;;;0.20;0.20;;;4.40;99.90;;;;;;5037055;28;20300;-85
2021/11/27 02:46:55;;;;;;;0.40;0.30;;;4.50;99.90;;;;;;5038455;28;20174;-85
2021/11/27 02:49:21;;;;;;;0.87;0.50;;;4.70;99.90;;;;;;5029696;28;20189;-84
2021/11/27 02:51:47;;;;;;;6.40;2.53;;;4.80;99.90;;;;;;5033526;28;20269;-85
2021/11/27 02:54:13;;;;;;;0.50;0.50;;;4.90;99.90;;;;;;5027967;28;20183;-85
2021/11/27 02:56:40;;;;;;;0.10;0.10;;;5.00;99.90;;;;;;5034011;28;20614;-84
2021/11/27 02:59:11;;;;;;;0.10;0.10;;;5.00;99.90;;;;;;5035823;28;20197;-85
2021/11/27 03:01:37;;;;;;;0.20;0.17;;;5.10;99.90;;;;;;5037422;28;20234;-85
2021/11/27 03:04:03;;;;;;;0.30;0.30;;;5.20;99.90;;;;;;5034249;28;20181;-85
2021/11/27 03:06:28;;;;;;;0.10;0.10;;;5.30;99.90;;;;;;5033467;28;20227;-85
2021/11/27 03:08:54;;;;;;;0.00;0.00;;;5.30;99.90;;;;;;5046358;28;20283;-85
2021/11/27 03:11:21;;;;;;;0.67;0.23;;;5.30;99.90;;;;;;5034042;28;20185;-84
2021/11/27 03:13:46;;;;;;;0.20;0.20;;;5.30;99.90;;;;;;5030792;28;20775;-85
2021/11/27 03:16:12;;;;;;;0.20;0.10;;;5.30;99.90;;;;;;5034513;28;20232;-85
2021/11/27 03:18:38;;;;;;;0.30;0.30;;;5.30;99.90;;;;;;5037077;28;20201;-84
2021/11/27 03:21:03;;;;;;;0.10;0.10;;;5.30;99.90;;;;;;5039474;28;20206;-85
2021/11/27 03:23:30;;;;;;;0.10;0.10;;;5.40;99.90;;;;;;5054455;28;20183;-85
2021/11/27 03:25:56;;;;;;;0.57;0.40;;;5.40;99.90;;;;;;5043707;28;20572;-84
2021/11/27 03:28:22;;;;;;;0.20;0.10;;;5.40;99.90;;;;;;5029506;28;20577;-84
2021/11/27 03:30:48;;;;;;;0.10;0.10;;;5.40;99.90;;;;;;5030373;28;20187;-85
2021/11/27 03:33:14;;;;;;;0.10;0.10;;;5.30;99.90;;;;;;5028606;28;20686;-84
2021/11/27 03:35:40;;;;;;;0.13;0.13;;;5.40;99.90;;;;;;5039573;28;20185;-85
2021/11/27 03:38:06;;;;;;;0.63;0.50;;;5.30;99.90;;;;;;5054731;28;20195;-85
2021/11/27 03:40:32;;;;;;;3.30;0.20;;;5.30;99.90;;;;;;5022592;28;20200;-84
2021/11/27 03:42:59;;;;;;;0.17;0.17;;;5.40;99.90;;;;;;5033268;28;20672;-84
2021/11/27 03:45:25;;;;;;;0.20;0.20;;;5.30;99.90;;;;;;5033321;28;20174;-85
2021/11/27 03:48:04;;;;;;;0.10;0.10;;;5.40;99.90;;;;;;5036743;28;20232;-84
2021/11/27 03:50:42;;;;;;;0.10;0.10;;;5.40;99.90;;;;;;5035106;28;20195;-85
2021/11/27 03:53:09;;;;;;;0.20;0.10;;;5.40;99.90;;;;;;5033225;28;20659;-85
2021/11/27 03:55:35;;;;;;;0.10;0.10;;;5.40;99.90;;;;;;5030095;28;20180;-85
2021/11/27 03:58:00;;;;;;;0.30;0.30;;;5.40;99.90;;;;;;5039183;28;20212;-85
2021/11/27 04:00:27;;;;;;;0.13;0.13;;;5.40;99.90;;;;;;5030062;28;20197;-84
2021/11/27 04:02:53;;;;;;;0.10;0.10;;;5.30;99.90;;;;;;5041644;28;20186;-84
2021/11/27 04:05:20;;;;;;;0.20;0.20;;;5.30;99.90;;;;;;5036472;28;20181;-85
2021/11/27 04:07:45;;;;;;;0.20;0.20;;;5.20;99.90;;;;;;5035932;28;20205;-85
2021/11/27 04:10:12;;;;;;;0.27;0.27;;;5.30;99.90;;;;;;5027872;28;20185;-84
2021/11/27 04:12:38;;;;;;;0.10;0.10;;;5.30;99.90;;;;;;5040578;28;20182;-84
2021/11/27 04:15:04;;;;;;;0.10;0.10;;;5.40;99.90;;;;;;5036724;28;20524;-85
2021/11/27 04:17:30;;;;;;;0.10;0.10;;;5.40;99.90;;;;;;5033698;28;20212;-85
2021/11/27 04:19:56;;;;;;;0.80;0.47;;;5.40;99.90;;;;;;5033822;28;20184;-85
2021/11/27 04:22:21;;;;;;;0.10;0.10;;;5.40;99.90;;;;;;5025758;28;20277;-85
2021/11/27 04:24:47;;;;;;;0.20;0.20;;;5.40;99.90;;;;;;5034753;28;20178;-85
2021/11/27 04:27:12;;;;;;;1.60;0.50;;;5.40;99.90;;;;;;5031908;28;20202;-85
2021/11/27 04:29:38;;;;;;;0.10;0.10;;;5.50;99.90;;;;;;5034053;28;20235;-84
2021/11/27 04:32:04;;;;;;;0.17;0.17;;;5.50;99.90;;;;;;5034592;28;20765;-85
2021/11/27 04:34:29;;;;;;;0.20;0.20;;;5.40;99.90;;;;;;5054173;28;20546;-85
2021/11/27 04:36:55;;;;;;;1.80;0.20;;;5.50;99.90;;;;;;5033997;28;20178;-84
2021/11/27 04:39:20;;;;;;;0.70;0.67;;;5.50;99.90;;;;;;5029648;28;20184;-85
2021/11/27 04:41:46;;;;;;;0.30;0.30;;;5.40;99.90;;;;;;5028738;28;20693;-85
2021/11/27 04:44:11;;;;;;;0.00;0.00;;;5.40;99.90;;;;;;5032253;28;20178;-84
2021/11/27 04:46:37;;;;;;;0.20;0.20;;;5.50;99.90;;;;;;5035077;28;20319;-84
2021/11/27 04:49:02;;;;;;;0.20;0.20;;;5.50;99.90;;;;;;5033181;28;20262;-85
2021/11/27 04:51:28;;;;;;;0.30;0.30;;;5.40;99.90;;;;;;5034970;28;20189;-85
2021/11/27 04:53:53;;;;;;;0.30;0.30;;;5.50;99.90;;;;;;5028653;28;20226;-85
2021/11/27 04:56:21;;;;;;;0.20;0.20;;;5.40;99.90;;;;;;5036153;28;20197;-85
2021/11/27 04:58:47;;;;;;;0.03;0.03;;;5.50;99.90;;;;;;5053022;28;20206;-85
2021/11/27 05:01:12;;;;;;;0.10;0.10;;;5.40;99.90;;;;;;5054538;28;20209;-84
2021/11/27 05:03:38;;;;;;;0.30;0.30;;;5.40;99.90;;;;;;5025817;28;20606;-85
2021/11/27 05:06:03;;;;;;;0.10;0.10;;;5.40;99.90;;;;;;5028693;28;20184;-85
2021/11/27 05:08:29;;;;;;;0.20;0.20;;;5.40;99.90;;;;;;5030343;28;20198;-85
2021/11/27 05:10:55;;;;;;;0.37;0.37;;;5.50;99.90;;;;;;5035899;28;20753;-85
2021/11/27 05:13:20;;;;;;;0.17;0.17;;;5.50;99.90;;;;;;5034953;28;20185;-85
2021/11/27 05:15:46;;;;;;;0.00;0.00;;;5.50;99.90;;;;;;5028618;28;20187;-84
2021/11/27 05:18:12;;;;;;;0.10;0.10;;;5.50;99.90;;;;;;5031971;28;20248;-85
2021/11/27 05:20:38;;;;;;;0.10;0.10;;;5.60;99.90;;;;;;5030068;28;20638;-86
2021/11/27 05:23:04;;;;;;;0.20;0.20;;;5.60;99.90;;;;;;5026386;28;20181;-85
2021/11/27 05:25:29;;;;;;;0.47;0.13;;;5.60;99.90;;;;;;5033465;28;20192;-85
2021/11/27 05:27:55;;;;;;;0.47;0.23;;;5.60;99.90;;;;;;5047798;28;20209;-85
2021/11/27 05:30:21;;;;;;;0.40;0.23;;;5.60;99.90;;;;;;5034367;28;20189;-84
2021/11/27 05:35:25;;;;;;;0.10;0.10;;;5.60;99.90;;;;;;5041200;28;20255;-85
2021/11/27 05:37:51;;;;;;;0.10;0.10;;;5.60;99.90;;;;;;5029642;28;20209;-85
2021/11/27 05:40:17;;;;;;;0.20;0.20;;;5.50;99.90;;;;;;5031563;28;20216;-85
2021/11/27 05:42:43;;;;;;;0.10;0.10;;;5.60;99.90;;;;;;5034676;28;20552;-85
2021/11/27 05:45:11;;;;;;;0.30;0.30;;;5.50;99.90;;;;;;5054429;28;20727;-85
2021/11/27 05:47:38;;;;;;;0.30;0.30;;;5.60;99.90;;;;;;5031905;28;20246;-85
2021/11/27 05:50:04;;;;;;;0.10;0.10;;;5.60;99.90;;;;;;5028236;28;20248;-84
2021/11/27 05:52:30;;;;;;;0.10;0.10;;;5.70;99.90;;;;;;5033424;28;20196;-85
2021/11/27 05:54:55;;;;;;;0.10;0.10;;;5.70;99.90;;;;;;5031159;28;20217;-84
2021/11/27 05:57:21;;;;;;;0.10;0.10;;;5.70;99.90;;;;;;5031566;28;20271;-84
2021/11/27 05:59:47;;;;;;;0.10;0.10;;;5.60;99.90;;;;;;5040418;28;20185;-85
2021/11/27 06:02:13;;;;;;;0.10;0.10;;;5.50;99.90;;;;;;5033169;28;20243;-84
2021/11/27 06:04:40;;;;;;;0.10;0.10;;;5.60;99.90;;;;;;5027538;28;20182;-85
2021/11/27 06:07:06;;;;;;;0.00;0.00;;;5.50;99.90;;;;;;5051551;28;20183;-85
2021/11/27 06:09:31;;;;;;;0.10;0.10;;;5.50;99.90;;;;;;5027978;28;20188;-85
2021/11/27 06:11:57;;;;;;;0.10;0.10;;;5.50;99.90;;;;;;5027796;28;20182;-84
2021/11/27 06:14:22;;;;;;;0.20;0.20;;;5.60;99.90;;;;;;5033637;28;20177;-84
2021/11/27 06:16:48;;;;;;;0.17;0.17;;;5.60;99.90;;;;;;5037944;28;20259;-82
2021/11/27 06:19:14;;;;;;;0.10;0.10;;;5.60;99.90;;;;;;5038211;28;20224;-82
2021/11/27 06:21:39;;;;;;;0.10;0.10;;;5.70;99.90;;;;;;5036845;28;20216;-82
2021/11/27 06:24:07;;;;;;;0.10;0.10;;;5.70;99.90;;;;;;5039753;28;20185;-82
2021/11/27 06:26:34;;;;;;;0.10;0.10;;;5.70;99.90;;;;;;5039370;28;20177;-82
2021/11/27 06:29:00;;;;;;;0.10;0.10;;;5.70;99.90;;;;;;5029503;28;20431;-89
2021/11/27 06:31:26;;;;;;;0.10;0.10;;;5.70;99.90;;;;;;5037027;28;20221;-81
2021/11/27 06:33:51;;;;;;;0.20;0.20;;;5.70;99.90;;;;;;5052837;28;20565;-82
2021/11/27 06:36:17;;;;;;;0.30;0.30;;;5.60;99.90;;;;;;5037845;28;20178;-82
2021/11/27 06:38:43;;;;;;;0.00;0.00;;;5.70;99.90;;;;;;5058059;28;20206;-81
2021/11/27 06:41:08;;;;;;;0.10;0.10;;;5.70;99.90;;;;;;5055054;28;20223;-82
2021/11/27 06:43:34;;;;;;;0.17;0.17;;;5.70;99.90;;;;;;5034838;28;20635;-81
2021/11/27 06:46:00;;;;;;;0.10;0.10;;;5.70;99.90;;;;;;5037917;28;20288;-81
2021/11/27 06:48:26;;;;;;;0.10;0.10;;;5.70;99.90;;;;;;5041015;28;20680;-82
2021/11/27 06:50:52;;;;;;;0.20;0.20;;;5.70;99.90;;;;;;5059716;28;20642;-82
2021/11/27 06:53:17;;;;;;;0.10;0.10;;;5.80;99.90;;;;;;5042493;28;20231;-82
2021/11/27 06:55:43;;;;;;;0.10;0.10;;;5.80;99.90;;;;;;5053754;28;20265;-82
2021/11/27 06:58:08;;;;;;;0.10;0.10;;;5.80;99.90;;;;;;5042799;28;20211;-82
2021/11/27 07:00:34;;;;;;;0.20;0.20;;;5.70;99.90;;;;;;5038803;28;20730;-82
2021/11/27 07:03:00;;;;;;;0.10;0.10;;;5.70;99.90;;;;;;5038145;28;20203;-82
2021/11/27 07:05:25;;;;;;;0.10;0.10;;;5.70;99.90;;;;;;5056257;28;20253;-84
2021/11/27 07:07:51;;;;;;;0.10;0.10;;;5.80;99.90;;;;;;5030712;28;20201;-83
2021/11/27 07:10:16;;;;;;;0.10;0.10;;;5.80;99.90;;;;;;5058027;28;20181;-83
2021/11/27 07:12:42;;;;;;;0.20;0.20;;;5.80;99.90;;;;;;5069662;28;20652;-84
2021/11/27 07:15:08;;;;;;;0.10;0.10;;;5.80;99.90;;;;;;5040041;28;20239;-85
2021/11/27 07:17:34;;;;;;;0.10;0.10;;;5.80;99.90;;;;;;5042635;28;20749;-83
2021/11/27 07:20:03;;;;;;;0.10;0.10;;;5.70;99.90;;;;;;5038547;28;20178;-84
2021/11/27 07:22:29;;;;;;;0.20;0.20;;;5.80;99.90;;;;;;5038102;28;20629;-83
2021/11/27 07:24:54;;;;;;;0.10;0.10;;;5.70;99.90;;;;;;5040318;28;20205;-83
2021/11/27 07:27:20;;;;;;;0.10;0.10;;;5.70;99.90;;;;;;5040097;28;20285;-83
2021/11/27 07:29:48;;;;;;;0.00;0.00;;;5.70;99.90;;;;;;5045600;28;20170;-83
2021/11/27 07:32:13;;;;;;;0.03;0.03;;;5.70;99.90;;;;;;5034159;28;20193;-82
2021/11/27 07:34:40;;;;;;;0.20;0.10;;;5.70;99.90;;;;;;5034482;28;20188;-83
2021/11/27 07:37:05;;;;;;;0.10;0.10;;;5.70;99.90;;;;;;5036764;28;20185;-83
2021/11/27 07:39:31;;;;;;;0.10;0.10;;;5.70;99.90;;;;;;5028391;28;20285;-84
2021/11/27 07:41:57;;;;;;;0.10;0.10;;;5.70;99.90;;;;;;5037414;28;20579;-84
2021/11/27 07:44:23;;;;;;;0.10;0.10;;;5.60;99.90;;;;;;5029541;28;20185;-84
2021/11/27 07:46:53;;;;;;;0.10;0.10;;;5.60;99.90;;;;;;5036724;28;20236;-84
2021/11/27 07:49:20;;;;;;;0.20;0.20;;;5.60;99.90;;;;;;5032899;28;20224;-85
2021/11/27 07:51:45;;;;;;;0.10;0.10;;;5.60;99.90;;;;;;5030475;28;20265;-84
2021/11/27 07:54:11;;;;;;;0.10;0.10;;;5.50;99.90;;;;;;5038160;28;20235;-84
2021/11/27 07:56:38;;;;;;;0.40;0.40;;;5.60;99.90;;;;;;5050277;28;20200;-84
2021/11/27 07:59:03;;;;;;;0.10;0.10;;;5.60;99.90;;;;;;5040858;28;20655;-84
2021/11/27 08:01:30;;;;;;;0.10;0.10;;;5.60;99.90;;;;;;5029193;28;20217;-84
2021/11/27 08:03:56;;;;;;;0.10;0.10;;;5.70;99.90;;;;;;5034964;28;20204;-84
2021/11/27 08:06:21;;;;;;;0.10;0.10;;;5.70;99.90;;;;;;5024675;28;20210;-84
2021/11/27 08:08:47;;;;;;;0.87;0.20;;;5.70;99.90;;;;;;5030992;28;20284;-84
2021/11/27 08:11:13;;;;;;;0.10;0.10;;;5.80;99.90;;;;;;5030200;28;20174;-85
2021/11/27 08:13:42;;;;;;;0.00;0.00;;;5.80;99.90;;;;;;5037891;28;20696;-84
2021/11/27 08:16:08;;;;;;;0.10;0.10;;;5.80;99.90;;;;;;5028244;28;20186;-84
2021/11/27 08:18:33;;;;;;;0.20;0.20;;;5.90;99.90;;;;;;5033745;28;20197;-84
2021/11/27 08:21:00;;;;;;;0.10;0.10;;;5.90;99.90;;;;;;5034477;28;20204;-85
2021/11/27 08:23:26;;;;;;;0.17;0.17;;;6.00;99.90;;;;;;5032551;28;20553;-84
2021/11/27 08:25:52;;;;;;;0.50;0.50;;;6.00;99.90;;;;;;5026282;28;20198;-85
2021/11/27 08:28:17;;;;;;;0.17;0.17;;;6.00;99.90;;;;;;5027032;28;20190;-84
2021/11/27 08:30:43;;;;;;;0.10;0.10;;;6.00;99.90;;;;;;5024982;28;20285;-84
2021/11/27 08:33:08;;;;;;;0.10;0.10;;;6.00;99.90;;;;;;5025806;28;20179;-84
2021/11/27 08:35:34;;;;;;;0.10;0.10;;;6.00;99.90;;;;;;5030320;28;20177;-84
2021/11/27 08:37:59;;;;;;;0.10;0.10;;;6.00;99.90;;;;;;5033316;28;20194;-84
2021/11/27 08:40:25;;;;;;;0.10;0.10;;;6.10;99.90;;;;;;5050769;28;20796;-85
2021/11/27 08:42:50;;;;;;;0.10;0.10;;;6.10;99.90;;;;;;5049107;28;20186;-84
2021/11/27 08:45:17;;;;;;;0.10;0.10;;;6.10;99.90;;;;;;5032571;28;20182;-85
2021/11/27 08:47:42;;;;;;;0.20;0.20;;;6.10;99.90;;;;;;5035462;28;20580;-84
2021/11/27 08:50:10;;;;;;;0.07;0.07;;;6.10;99.90;;;;;;5035092;28;20193;-82
2021/11/27 08:52:35;;;;;;;0.17;0.17;;;6.10;99.90;;;;;;5036557;28;20184;-82
2021/11/27 08:55:02;;;;;;;0.10;0.10;;;6.10;99.90;;;;;;5035835;28;20182;-83
2021/11/27 08:57:27;;;;;;;0.37;0.30;;;6.10;99.90;;;;;;5031574;28;20228;-82
2021/11/27 08:59:53;;;;;;;0.20;0.20;;;6.00;99.90;;;;;;5042075;28;20560;-82
2021/11/27 09:02:20;;;;;;;0.10;0.10;;;6.00;99.90;;;;;;5037680;28;20204;-82
2021/11/27 09:04:46;;;;;;;0.20;0.20;;;5.90;99.90;;;;;;5034589;28;20182;-82
2021/11/27 09:07:11;;;;;;;0.20;0.20;;;5.80;99.90;;;;;;5033782;28;20252;-82
2021/11/27 09:09:37;;;;;;;0.10;0.10;;;5.70;99.90;;;;;;5024385;28;20178;-82
2021/11/27 09:12:07;;;;;;;0.07;0.07;;;5.70;99.90;;;;;;5034951;28;20184;-82
2021/11/27 09:14:34;;;;;;;0.60;0.30;;;5.70;99.90;;;;;;5036543;28;20805;-82
2021/11/27 09:17:00;;;;;;;0.10;0.10;;;5.70;99.90;;;;;;5037421;28;20268;-82
2021/11/27 09:19:26;;;;;;;1.07;0.40;;;5.60;99.90;;;;;;5053985;28;20247;-82
2021/11/27 09:21:51;;;;;;;0.10;0.10;;;5.50;99.90;;;;;;5033288;28;20204;-82
2021/11/27 09:24:19;;;;;;;0.20;0.20;;;5.40;99.90;;;;;;5031532;28;20254;-82
2021/11/27 09:26:45;;;;;;;0.10;0.10;;;5.40;99.90;;;;;;5034438;28;20178;-82
2021/11/27 09:29:14;;;;;;;0.10;0.10;;;5.40;99.90;;;;;;5035720;28;20278;-82
2021/11/27 09:31:40;;;;;;;0.53;0.53;;;5.50;99.90;;;;;;5035723;28;20189;-81
2021/11/27 09:34:07;;;;;;;0.30;0.30;;;5.60;99.90;;;;;;5032993;28;20189;-82
2021/11/27 09:36:34;;;;;;;0.20;0.20;;;5.60;99.90;;;;;;5050438;28;20211;-81
2021/11/27 09:39:00;;;;;;;0.10;0.10;;;5.70;99.90;;;;;;5039138;28;20205;-81
2021/11/27 09:41:29;;;;;;;0.10;0.10;;;5.80;99.90;;;;;;5045205;28;20558;-81
2021/11/27 09:43:57;;;;;;;0.10;0.10;;;5.90;99.90;;;;;;5032937;28;20177;-81
2021/11/27 09:46:25;;;;;;;0.33;0.33;;;6.00;99.90;;;;;;5033928;28;20184;-81
2021/11/27 09:48:54;;;;;;;0.20;0.20;;;6.00;99.90;;;;;;5035999;28;20236;-82
2021/11/27 09:51:24;;;;;;;0.13;0.13;;;6.10;99.90;;;;;;5035078;28;20593;-81
2021/11/27 09:53:51;;;;;;;0.20;0.13;;;6.30;99.90;;;;;;5053947;28;20178;-81
2021/11/27 09:56:19;;;;;;;0.20;0.20;;;6.20;99.90;;;;;;5034720;28;20177;-81
2021/11/27 09:58:45;;;;;;;0.10;0.10;;;6.00;99.90;;;;;;5025777;28;20214;-81
2021/11/27 10:01:14;;;;;;;0.20;0.20;;;6.00;99.90;;;;;;5032858;28;20690;-81
2021/11/27 10:03:48;;;;;;;0.10;0.10;;;6.00;99.90;;;;;;5035721;28;20315;-82
2021/11/27 10:06:15;;;;;;;0.10;0.10;;;6.00;99.90;;;;;;5032115;28;20173;-81
2021/11/27 10:08:40;;;;;;;1.90;0.20;;;6.00;99.90;;;;;;5029611;28;20200;-82
2021/11/27 10:11:06;;;;;;;0.20;0.20;;;6.10;99.90;;;;;;5025139;28;20692;-83
2021/11/27 10:13:31;;;;;;;0.10;0.10;;;6.40;99.90;;;;;;5035543;28;20641;-83
2021/11/27 10:15:57;;;;;;;0.97;0.97;;;6.60;99.90;;;;;;5048962;28;20192;-83
2021/11/27 10:18:25;;;;;;;0.30;0.30;;;6.90;99.90;;;;;;5034959;28;20222;-83
2021/11/27 10:21:16;;;;;;;0.00;0.00;;;7.10;99.90;;;;;;5054446;28;20210;-82
2021/11/27 10:23:42;;;;;;;0.20;0.20;;;7.00;99.90;;;;;;5034607;28;20174;-81
2021/11/27 10:26:08;;;;;;;0.10;0.10;;;6.80;99.90;;;;;;5034577;28;20553;-82
2021/11/27 10:28:33;;;;;;;0.20;0.20;;;6.80;99.90;;;;;;5032638;28;20725;-82
2021/11/27 10:31:02;;;;;;;0.10;0.10;;;6.90;99.90;;;;;;5035006;28;20189;-85
2021/11/27 10:33:29;;;;;;;0.27;0.20;;;7.10;99.90;;;;;;5035557;28;20214;-84
2021/11/27 10:35:57;;;;;;;0.10;0.10;;;7.00;99.90;;;;;;5036411;28;20186;-84
2021/11/27 10:38:44;;;;;;;0.13;0.13;;;6.90;99.90;;;;;;5025696;28;20204;-85
2021/11/27 10:41:13;;;;;;;0.10;0.10;;;6.80;99.90;;;;;;5030700;28;20297;-84
2021/11/27 10:43:58;;;;;;;0.10;0.10;;;6.80;99.90;;;;;;5036280;28;20217;-84
2021/11/27 10:46:25;;;;;;;0.93;0.40;;;6.80;99.90;;;;;;5035843;28;20182;-85
2021/11/27 10:48:51;;;;;;;0.10;0.10;;;6.90;99.90;;;;;;5038033;28;20652;-85
2021/11/27 10:51:21;;;;;;;0.10;0.10;;;7.10;99.90;;;;;;5027020;28;20174;-85
2021/11/27 10:53:58;;;;;;;0.10;0.10;;;7.20;99.90;;;;;;5051764;28;20179;-85
2021/11/27 10:56:39;;;;;;;0.10;0.10;;;7.30;99.90;;;;;;5039833;28;20196;-84
2021/11/27 10:59:07;;;;;;;0.10;0.10;;;7.40;99.90;;;;;;5028938;28;20406;-84
2021/11/27 11:02:11;;;;;;;0.10;0.10;;;7.40;99.90;;;;;;5057812;28;20206;-84
2021/11/27 11:04:37;;;;;;;0.10;0.10;;;7.60;99.90;;;;;;5032661;28;20179;-85
2021/11/27 11:07:19;;;;;;;0.10;0.10;;;7.60;99.90;;;;;;5037262;28;20220;-84
2021/11/27 11:10:07;;;;;;;0.07;0.07;;;7.70;99.90;;;;;;5030141;28;20255;-85
2021/11/27 11:12:40;;;;;;;0.23;0.17;;;7.70;99.90;;;;;;5044633;28;20186;-84
2021/11/27 11:15:28;;;;;;;0.77;0.40;;;7.90;99.90;;;;;;5026887;28;20174;-85
2021/11/27 11:18:14;;;;;;;0.10;0.10;;;8.10;99.90;;;;;;5032963;28;20215;-84
2021/11/27 11:20:54;;;;;;;0.10;0.10;;;7.80;99.90;;;;;;5031089;28;20209;-85
2021/11/27 11:23:49;;;;;;;0.10;0.10;;;7.70;99.90;;;;;;5034462;28;20698;-84
2021/11/27 11:26:18;;;;;;;0.13;0.13;;;7.70;99.90;;;;;;5033768;28;20673;-85
2021/11/27 11:28:58;;;;;;;0.00;0.00;;;7.50;99.90;;;;;;5035156;28;20572;-84
2021/11/27 11:31:34;;;;;;;0.23;0.10;;;7.40;99.90;;;;;;5038883;28;20186;-85
2021/11/27 11:34:01;;;;;;;0.07;0.07;;;7.20;99.90;;;;;;5032115;28;20248;-84
2021/11/27 11:36:27;;;;;;;0.10;0.10;;;7.50;99.90;;;;;;5037676;28;20184;-85
2021/11/27 11:38:58;;;;;;;0.10;0.10;;;7.50;99.90;;;;;;5049499;28;20264;-85
2021/11/27 11:41:25;;;;;;;0.20;0.20;;;7.40;99.90;;;;;;5033562;28;20199;-83
2021/11/27 11:43:53;;;;;;;0.20;0.20;;;7.40;99.90;;;;;;5035240;28;20558;-84
2021/11/27 11:46:19;;;;;;;0.13;0.13;;;7.40;99.90;;;;;;5037947;28;20534;-84
2021/11/27 11:48:54;;;;;;;0.10;0.10;;;7.40;99.90;;;;;;5039618;28;20197;-84
2021/11/27 11:51:53;;;;;;;0.10;0.10;;;7.20;99.90;;;;;;5038591;28;20201;-84
2021/11/27 11:54:22;;;;;;;0.20;0.20;;;7.20;99.90;;;;;;5033107;28;20760;-85
2021/11/27 11:57:00;;;;;;;0.53;0.53;;;7.30;99.90;;;;;;5036914;28;20186;-84
2021/11/27 11:59:28;;;;;;;0.40;0.30;;;7.50;99.90;;;;;;5031523;28;20216;-85
2021/11/27 12:02:16;;;;;;;0.10;0.10;;;8.00;99.90;;;;;;5028023;28;20242;-84
2021/11/27 12:04:57;;;;;;;0.17;0.17;;;8.20;99.90;;;;;;5039474;28;20181;-84
2021/11/27 12:07:47;;;;;;;0.10;0.10;;;8.20;99.90;;;;;;5041097;28;20281;-84
2021/11/27 12:10:20;;;;;;;0.03;0.03;;;8.30;99.90;;;;;;5037177;28;20209;-84
2021/11/27 12:13:09;;;;;;;0.40;0.20;;;8.60;99.90;;;;;;5034383;28;20174;-83
2021/11/27 12:15:40;;;;;;;0.40;0.20;;;8.50;99.90;;;;;;5032774;28;20247;-84
2021/11/27 12:18:20;;;;;;;0.13;0.13;;;8.60;99.90;;;;;;5039386;28;20206;-83
2021/11/27 12:21:00;;;;;;;0.10;0.10;;;8.80;99.90;;;;;;5062136;28;20216;-83
2021/11/27 12:23:26;;;;;;;0.20;0.20;;;9.10;99.90;;;;;;5034235;28;20209;-84
2021/11/27 12:26:14;;;;;;;0.20;0.20;;;9.10;99.90;;;;;;5040311;28;20213;-83
2021/11/27 12:28:48;;;;;;;0.10;0.10;;;9.20;99.90;;;;;;5039133;28;20209;-84
2021/11/27 12:31:15;;;;;;;0.30;0.30;;;9.10;99.90;;;;;;5040522;28;20193;-83
2021/11/27 12:34:01;;;;;;;0.10;0.10;;;8.40;99.90;;;;;;5040184;28;20533;-83
2021/11/27 12:36:31;;;;;;;0.20;0.20;;;8.10;99.90;;;;;;5039628;28;20555;-83
2021/11/27 12:39:22;;;;;;;0.10;0.10;;;8.00;99.90;;;;;;5039858;28;20209;-83
2021/11/27 12:41:48;;;;;;;0.20;0.20;;;8.10;99.90;;;;;;5063901;28;20214;-83
2021/11/27 12:44:27;;;;;;;0.10;0.10;;;8.10;99.90;;;;;;5041642;28;20178;-83
2021/11/27 12:47:00;;;;;;;0.10;0.10;;;8.10;99.90;;;;;;5040843;28;20180;-84
2021/11/27 12:49:31;;;;;;;0.10;0.10;;;7.70;99.90;;;;;;5030186;28;20216;-82
2021/11/27 12:52:28;;;;;;;0.17;0.17;;;7.30;99.90;;;;;;5039348;28;20908;-83
2021/11/27 12:55:09;;;;;;;0.10;0.10;;;7.10;99.90;;;;;;5057082;28;20175;-82
2021/11/27 12:57:40;;;;;;;0.20;0.20;;;6.80;99.90;;;;;;5043256;28;20195;-82
2021/11/27 13:00:19;;;;;;;0.10;0.10;;;6.70;99.90;;;;;;5032217;28;20240;-82
2021/11/27 13:02:52;;;;;;;0.30;0.30;;;6.50;99.90;;;;;;5056696;28;20606;-82
2021/11/27 13:05:19;;;;;;;0.10;0.10;;;6.60;99.90;;;;;;5058747;28;20174;-82
2021/11/27 13:07:45;;;;;;;0.10;0.10;;;6.50;99.90;;;;;;5041111;28;20230;-82